Time;durP1;ratioP1;P1;durP2;ratioP2;P2;SDS_P1;SDS_P2;PMS_P1;PMS_P2;Temp;Humidity;BMP_temperature;BMP_pressure;BME280_temperature;BME280_humidity;BME280_pressure;Samples;Min_cycle;Max_cycle;Signal;HPM_P1;HPM_P2
2021/11/26 00:02:09;;;;;;;24.73;13.00;;;2.20;99.90;;;;;;5062837;28;20190;-79
2021/11/26 00:04:35;;;;;;;26.67;12.73;;;2.20;99.90;;;;;;5063240;28;20201;-78
2021/11/26 00:07:00;;;;;;;27.00;12.43;;;2.20;99.90;;;;;;5062160;28;20204;-78
2021/11/26 00:09:26;;;;;;;24.17;11.17;;;2.30;99.90;;;;;;5082255;28;20185;-78
2021/11/26 00:11:51;;;;;;;24.93;11.80;;;2.30;99.90;;;;;;5082197;28;20667;-78
2021/11/26 00:14:26;;;;;;;21.40;11.10;;;2.30;99.90;;;;;;5061916;28;20576;-80
2021/11/26 00:16:58;;;;;;;21.83;10.97;;;2.30;99.90;;;;;;5082187;28;20650;-78
2021/11/26 00:19:25;;;;;;;18.77;12.10;;;2.30;99.90;;;;;;5081740;28;20180;-77
2021/11/26 00:21:51;;;;;;;27.57;11.43;;;2.20;99.90;;;;;;5085818;28;20199;-80
2021/11/26 00:24:17;;;;;;;22.63;10.87;;;2.10;99.90;;;;;;5063435;28;20201;-78
2021/11/26 00:26:44;;;;;;;19.50;10.33;;;2.10;99.90;;;;;;5063049;28;20262;-80
2021/11/26 00:29:11;;;;;;;22.50;10.57;;;2.00;99.90;;;;;;5080748;28;20173;-78
2021/11/26 00:31:37;;;;;;;21.90;10.87;;;1.90;99.90;;;;;;5080679;28;20177;-78
2021/11/26 00:34:04;;;;;;;20.57;10.77;;;1.90;99.90;;;;;;5081779;28;20261;-80
2021/11/26 00:36:29;;;;;;;18.73;10.33;;;1.80;99.90;;;;;;5063568;28;20188;-79
2021/11/26 00:38:55;;;;;;;23.73;9.73;;;1.80;99.90;;;;;;5081374;28;20261;-79
2021/11/26 00:41:21;;;;;;;18.83;10.50;;;1.70;99.90;;;;;;5063682;28;20685;-79
2021/11/26 00:43:46;;;;;;;21.00;10.20;;;1.60;99.90;;;;;;5081117;28;20177;-80
2021/11/26 00:46:12;;;;;;;22.83;10.10;;;1.70;99.90;;;;;;5061923;28;20193;-81
2021/11/26 00:48:38;;;;;;;20.73;10.07;;;1.90;99.90;;;;;;5082563;28;20185;-78
2021/11/26 00:51:04;;;;;;;23.97;10.47;;;2.00;99.90;;;;;;5080750;28;20552;-80
2021/11/26 00:53:29;;;;;;;19.40;9.93;;;2.10;99.90;;;;;;5081907;28;20177;-79
2021/11/26 00:55:55;;;;;;;19.10;10.47;;;2.20;99.90;;;;;;5061709;28;20200;-78
2021/11/26 00:58:21;;;;;;;19.27;9.67;;;2.30;99.90;;;;;;5062654;28;20272;-79
2021/11/26 01:00:47;;;;;;;20.13;10.67;;;2.40;99.90;;;;;;5079550;28;20196;-80
2021/11/26 01:03:13;;;;;;;21.80;10.30;;;2.60;99.90;;;;;;5079258;28;20284;-79
2021/11/26 01:05:38;;;;;;;23.50;9.63;;;2.70;99.90;;;;;;5080646;28;20852;-81
2021/11/26 01:08:04;;;;;;;19.60;9.70;;;2.90;99.90;;;;;;5061637;28;20626;-79
2021/11/26 01:10:30;;;;;;;18.73;10.20;;;3.00;99.90;;;;;;5062057;28;20174;-80
2021/11/26 01:12:56;;;;;;;18.27;8.33;;;3.20;99.90;;;;;;5080048;28;20193;-78
2021/11/26 01:15:24;;;;;;;20.60;9.20;;;3.40;99.90;;;;;;5062174;28;20201;-80
2021/11/26 01:17:50;;;;;;;15.97;9.27;;;3.40;99.90;;;;;;5079977;28;20177;-78
2021/11/26 01:20:19;;;;;;;18.90;9.50;;;3.50;99.90;;;;;;5080556;28;20610;-78
2021/11/26 01:22:45;;;;;;;18.93;9.73;;;3.60;99.90;;;;;;5062079;28;21051;-77
2021/11/26 01:25:12;;;;;;;17.90;9.20;;;3.60;99.90;;;;;;5062348;28;20346;-78
2021/11/26 01:27:38;;;;;;;15.73;8.43;;;3.70;99.90;;;;;;5082095;28;20178;-79
2021/11/26 01:30:14;;;;;;;20.73;9.53;;;3.80;99.90;;;;;;5080127;28;20820;-79
2021/11/26 01:32:41;;;;;;;16.87;8.40;;;3.70;99.90;;;;;;5061407;28;20196;-79
2021/11/26 01:35:07;;;;;;;16.67;9.50;;;3.70;99.90;;;;;;5079771;28;20201;-79
2021/11/26 01:37:33;;;;;;;21.67;9.70;;;3.80;99.90;;;;;;5078917;28;20924;-81
2021/11/26 01:39:59;;;;;;;16.57;8.67;;;3.70;99.90;;;;;;5080889;28;20181;-77
2021/11/26 01:42:24;;;;;;;20.20;8.97;;;3.80;99.90;;;;;;5080614;28;20182;-79
2021/11/26 01:44:50;;;;;;;16.10;8.57;;;3.80;99.90;;;;;;5061201;28;20769;-79
2021/11/26 01:47:16;;;;;;;21.43;9.33;;;3.80;99.90;;;;;;5060769;28;20845;-80
2021/11/26 01:49:41;;;;;;;20.17;9.93;;;3.90;99.90;;;;;;5060349;28;20185;-79
2021/11/26 01:52:07;;;;;;;21.10;9.77;;;3.90;99.90;;;;;;5081024;28;20199;-79
2021/11/26 01:54:32;;;;;;;17.20;9.03;;;3.90;99.90;;;;;;5061796;28;20211;-79
2021/11/26 01:56:58;;;;;;;19.73;8.50;;;3.90;99.90;;;;;;5079098;28;20673;-80
2021/11/26 01:59:24;;;;;;;16.30;9.70;;;3.90;99.90;;;;;;5060426;28;20753;-79
2021/11/26 02:01:50;;;;;;;20.57;9.23;;;3.90;99.90;;;;;;5078448;28;20205;-78
2021/11/26 02:04:15;;;;;;;18.67;9.30;;;3.90;99.90;;;;;;5082142;28;20193;-78
2021/11/26 02:06:41;;;;;;;19.37;8.50;;;3.90;99.90;;;;;;5080696;28;21168;-81
2021/11/26 02:09:07;;;;;;;20.27;8.53;;;3.90;99.90;;;;;;5061099;28;20200;-79
2021/11/26 02:11:33;;;;;;;17.60;8.53;;;3.90;99.90;;;;;;5060933;28;20195;-79
2021/11/26 02:13:59;;;;;;;17.17;8.77;;;3.90;99.90;;;;;;5079854;28;21261;-80
2021/11/26 02:16:24;;;;;;;15.43;8.27;;;3.80;99.90;;;;;;5080343;28;20197;-80
2021/11/26 02:18:51;;;;;;;16.00;8.37;;;3.80;99.90;;;;;;5060733;28;20200;-81
2021/11/26 02:21:18;;;;;;;17.47;8.10;;;3.70;99.90;;;;;;5061578;28;20185;-79
2021/11/26 02:23:45;;;;;;;20.47;8.17;;;3.70;99.90;;;;;;5079401;28;20227;-81
2021/11/26 02:26:11;;;;;;;16.27;7.57;;;3.60;99.90;;;;;;5080127;28;20196;-80
2021/11/26 02:28:37;;;;;;;17.40;7.47;;;3.60;99.90;;;;;;5079140;28;20254;-79
2021/11/26 02:31:02;;;;;;;17.00;7.90;;;3.60;99.90;;;;;;5079643;28;20188;-78
2021/11/26 02:33:28;;;;;;;16.10;7.27;;;3.70;99.90;;;;;;5060802;28;20200;-79
2021/11/26 02:35:54;;;;;;;16.50;8.73;;;3.60;99.90;;;;;;5080000;28;20215;-78
2021/11/26 02:38:26;;;;;;;15.63;8.07;;;3.60;99.90;;;;;;5059346;28;20224;-80
2021/11/26 02:40:52;;;;;;;19.93;8.20;;;3.50;99.90;;;;;;5061016;28;20234;-78
2021/11/26 02:43:18;;;;;;;16.30;7.90;;;3.60;99.90;;;;;;5079021;28;20228;-80
2021/11/26 02:45:45;;;;;;;16.20;8.20;;;3.60;99.90;;;;;;5068602;28;20228;-79
2021/11/26 02:48:13;;;;;;;17.37;7.63;;;3.60;99.90;;;;;;5060665;28;20189;-78
2021/11/26 02:50:39;;;;;;;16.10;8.00;;;3.60;99.90;;;;;;5078078;28;20177;-78
2021/11/26 02:53:06;;;;;;;16.00;8.13;;;3.70;99.90;;;;;;5062138;28;20233;-80
2021/11/26 02:55:34;;;;;;;19.53;8.87;;;3.70;99.90;;;;;;5077442;28;20205;-79
2021/11/26 02:57:59;;;;;;;16.03;8.27;;;3.70;99.90;;;;;;5079139;28;20274;-78
2021/11/26 03:00:28;;;;;;;17.13;7.97;;;3.70;99.90;;;;;;5078218;28;20327;-79
2021/11/26 03:02:54;;;;;;;18.00;7.67;;;3.60;99.90;;;;;;5059943;28;20198;-78
2021/11/26 03:05:21;;;;;;;16.83;7.43;;;3.50;99.90;;;;;;5078352;28;20300;-79
2021/11/26 03:07:47;;;;;;;16.87;7.27;;;3.50;99.90;;;;;;5078295;28;20269;-78
2021/11/26 03:10:18;;;;;;;16.13;7.70;;;3.40;99.90;;;;;;5079468;28;20200;-80
2021/11/26 03:12:45;;;;;;;14.73;7.50;;;3.40;99.90;;;;;;5078627;28;20168;-77
2021/11/26 03:15:12;;;;;;;16.73;7.27;;;3.30;99.90;;;;;;5061356;28;20201;-80
2021/11/26 03:17:38;;;;;;;15.17;7.30;;;3.20;99.90;;;;;;5079517;28;20196;-81
2021/11/26 03:20:04;;;;;;;17.37;7.63;;;3.20;99.90;;;;;;5076995;28;20186;-81
2021/11/26 03:22:30;;;;;;;15.27;6.37;;;3.20;99.90;;;;;;5060765;28;20181;-79
2021/11/26 03:24:55;;;;;;;17.83;7.33;;;3.20;99.90;;;;;;5059637;28;20205;-80
2021/11/26 03:27:21;;;;;;;16.27;8.20;;;3.20;99.90;;;;;;5062003;28;20185;-80
2021/11/26 03:29:46;;;;;;;15.40;6.53;;;3.20;99.90;;;;;;5079249;28;20216;-79
2021/11/26 03:32:12;;;;;;;15.93;7.50;;;3.20;99.90;;;;;;5079241;28;20185;-79
2021/11/26 03:34:37;;;;;;;17.90;7.07;;;3.10;99.90;;;;;;5059997;28;20217;-79
2021/11/26 03:37:03;;;;;;;15.97;7.17;;;3.00;99.90;;;;;;5078505;28;20196;-79
2021/11/26 03:39:29;;;;;;;13.07;6.97;;;3.00;99.90;;;;;;5058347;28;20181;-79
2021/11/26 03:41:55;;;;;;;15.77;6.70;;;2.90;99.90;;;;;;5063782;28;20661;-78
2021/11/26 03:44:20;;;;;;;18.03;8.10;;;2.80;99.90;;;;;;5081070;28;20311;-78
2021/11/26 03:46:46;;;;;;;18.33;7.40;;;2.90;99.90;;;;;;5064649;28;20687;-78
2021/11/26 03:49:11;;;;;;;17.47;7.93;;;2.90;99.90;;;;;;5063433;28;20187;-78
2021/11/26 03:51:37;;;;;;;17.93;7.93;;;2.80;99.90;;;;;;5064711;28;20189;-78
2021/11/26 03:54:03;;;;;;;17.33;8.03;;;2.70;99.90;;;;;;5063501;28;20181;-78
2021/11/26 03:56:28;;;;;;;16.77;7.80;;;2.70;99.90;;;;;;5063874;28;20238;-80
2021/11/26 03:58:54;;;;;;;17.83;7.77;;;2.60;99.90;;;;;;5081543;28;20698;-78
2021/11/26 04:01:19;;;;;;;14.73;7.77;;;2.60;99.90;;;;;;5063250;28;20235;-79
2021/11/26 04:03:45;;;;;;;19.10;7.87;;;2.60;99.90;;;;;;5080105;28;20213;-78
2021/11/26 04:06:11;;;;;;;18.43;8.17;;;2.70;99.90;;;;;;5081286;28;20643;-78
2021/11/26 04:08:36;;;;;;;15.67;8.37;;;2.60;99.90;;;;;;5064685;28;20184;-78
2021/11/26 04:11:02;;;;;;;17.80;8.10;;;2.60;99.90;;;;;;5082542;28;20560;-78
2021/11/26 04:13:27;;;;;;;20.20;9.00;;;2.50;99.90;;;;;;5081008;28;20193;-78
2021/11/26 04:16:00;;;;;;;17.53;8.80;;;2.50;99.90;;;;;;5062840;28;20211;-78
2021/11/26 04:18:26;;;;;;;16.60;8.60;;;2.60;99.90;;;;;;5082355;28;21092;-78
2021/11/26 04:20:51;;;;;;;19.60;8.90;;;2.80;99.90;;;;;;5064755;28;20207;-80
2021/11/26 04:23:17;;;;;;;17.63;8.97;;;2.80;99.90;;;;;;5061609;28;20595;-78
2021/11/26 04:25:43;;;;;;;19.70;8.70;;;2.80;99.90;;;;;;5062715;28;20281;-80
2021/11/26 04:28:08;;;;;;;18.80;8.70;;;2.80;99.90;;;;;;5061665;28;20657;-79
2021/11/26 04:30:34;;;;;;;19.80;8.57;;;2.80;99.90;;;;;;5062457;28;20277;-78
2021/11/26 04:33:01;;;;;;;19.97;8.27;;;2.70;99.90;;;;;;5063038;28;21141;-78
2021/11/26 04:35:26;;;;;;;19.03;8.67;;;2.70;99.90;;;;;;5063140;28;20322;-81
2021/11/26 04:37:52;;;;;;;18.03;8.37;;;2.60;99.90;;;;;;5081138;28;20293;-81
2021/11/26 04:40:18;;;;;;;18.50;9.03;;;2.60;99.90;;;;;;5062658;28;20193;-79
2021/11/26 04:42:44;;;;;;;21.80;9.47;;;2.60;99.90;;;;;;5081831;28;20181;-78
2021/11/26 04:45:12;;;;;;;19.60;8.63;;;2.60;99.90;;;;;;5080872;28;20302;-78
2021/11/26 04:47:39;;;;;;;20.40;8.67;;;2.70;99.90;;;;;;5081438;28;20169;-81
2021/11/26 04:50:06;;;;;;;23.40;9.70;;;2.70;99.90;;;;;;5080437;28;20243;-80
2021/11/26 04:52:32;;;;;;;21.17;8.90;;;2.70;99.90;;;;;;5062353;28;20185;-81
2021/11/26 04:54:57;;;;;;;18.37;8.73;;;2.70;99.90;;;;;;5080258;28;20254;-77
2021/11/26 04:57:23;;;;;;;21.00;9.97;;;2.70;99.90;;;;;;5081110;28;20219;-79
2021/11/26 04:59:48;;;;;;;24.47;9.77;;;2.60;99.90;;;;;;5082257;28;20184;-78
2021/11/26 05:02:14;;;;;;;23.60;9.20;;;2.60;99.90;;;;;;5081458;28;20196;-80
2021/11/26 05:04:40;;;;;;;22.50;9.57;;;2.70;99.90;;;;;;5061640;28;20771;-78
2021/11/26 05:07:05;;;;;;;20.90;9.87;;;2.70;99.90;;;;;;5081375;28;20248;-79
2021/11/26 05:09:31;;;;;;;21.73;9.37;;;2.70;99.90;;;;;;5080115;28;20177;-81
2021/11/26 05:11:57;;;;;;;20.93;8.87;;;2.60;99.90;;;;;;5062867;28;20181;-79
2021/11/26 05:14:24;;;;;;;21.10;8.80;;;2.70;99.90;;;;;;5061602;28;20208;-78
2021/11/26 05:16:51;;;;;;;20.53;9.10;;;2.70;99.90;;;;;;5063046;28;20188;-78
2021/11/26 05:19:17;;;;;;;18.97;8.30;;;2.60;99.90;;;;;;5079327;28;20181;-78
2021/11/26 05:21:43;;;;;;;17.57;9.00;;;2.70;99.90;;;;;;5061732;28;20234;-80
2021/11/26 05:24:09;;;;;;;19.27;8.37;;;2.90;99.90;;;;;;5063534;28;20967;-79
2021/11/26 05:26:35;;;;;;;19.63;8.17;;;3.00;99.90;;;;;;5061534;28;20225;-79
2021/11/26 05:29:01;;;;;;;18.03;7.57;;;3.00;99.90;;;;;;5080648;28;20173;-77
2021/11/26 05:31:26;;;;;;;19.83;8.63;;;2.90;99.90;;;;;;5080556;28;20180;-77
2021/11/26 05:33:53;;;;;;;19.03;8.17;;;3.00;99.90;;;;;;5060256;28;20181;-78
2021/11/26 05:36:19;;;;;;;21.23;8.07;;;3.10;99.90;;;;;;5064510;28;20220;-78
2021/11/26 05:38:45;;;;;;;18.13;7.70;;;3.10;99.90;;;;;;5082315;28;20211;-79
2021/11/26 05:41:10;;;;;;;19.07;8.60;;;3.10;99.90;;;;;;5062904;28;20224;-79
2021/11/26 05:43:36;;;;;;;20.50;7.73;;;3.10;99.90;;;;;;5060723;28;20189;-77
2021/11/26 05:46:01;;;;;;;14.63;7.27;;;3.00;99.90;;;;;;5081294;28;20512;-78
2021/11/26 05:48:27;;;;;;;17.17;7.80;;;3.00;99.90;;;;;;5080887;28;20177;-79
2021/11/26 05:50:53;;;;;;;19.03;7.80;;;3.00;99.90;;;;;;5062039;28;20185;-81
2021/11/26 05:53:18;;;;;;;17.33;7.40;;;3.00;99.90;;;;;;5061213;28;20192;-79
2021/11/26 05:55:44;;;;;;;17.57;7.50;;;2.90;99.90;;;;;;5060900;28;20212;-76
2021/11/26 05:58:10;;;;;;;16.30;7.00;;;2.80;99.90;;;;;;5079377;28;20190;-77
2021/11/26 06:00:36;;;;;;;16.40;7.33;;;2.90;99.90;;;;;;5059499;28;20239;-79
2021/11/26 06:03:03;;;;;;;15.03;6.93;;;2.80;99.90;;;;;;5076299;28;20669;-80
2021/11/26 06:05:29;;;;;;;15.83;7.00;;;2.80;99.90;;;;;;5059891;28;20266;-78
2021/11/26 06:07:55;;;;;;;13.80;6.50;;;2.80;99.90;;;;;;5078035;28;20746;-78
2021/11/26 06:10:21;;;;;;;14.57;6.43;;;2.70;99.90;;;;;;5075273;28;20176;-79
2021/11/26 06:12:48;;;;;;;14.53;7.30;;;2.70;99.90;;;;;;5060966;28;20181;-78
2021/11/26 06:15:16;;;;;;;14.77;6.40;;;2.60;99.90;;;;;;5077519;28;20575;-78
2021/11/26 06:17:42;;;;;;;16.97;6.37;;;2.70;99.90;;;;;;5059106;28;20191;-79
2021/11/26 06:20:09;;;;;;;14.00;6.77;;;2.70;99.90;;;;;;5067870;28;20213;-81
2021/11/26 06:22:35;;;;;;;13.83;5.70;;;2.70;99.90;;;;;;5058754;28;20177;-79
2021/11/26 06:25:01;;;;;;;14.13;6.47;;;2.70;99.90;;;;;;5076439;28;20764;-82
2021/11/26 06:27:27;;;;;;;12.67;5.50;;;2.60;99.90;;;;;;5058960;28;20174;-79
2021/11/26 06:29:52;;;;;;;14.33;5.77;;;2.70;99.90;;;;;;5077778;28;20185;-79
2021/11/26 06:32:19;;;;;;;12.40;6.30;;;2.80;99.90;;;;;;5077148;28;20185;-81
2021/11/26 06:34:45;;;;;;;12.77;5.83;;;2.80;99.90;;;;;;5059057;28;20197;-78
2021/11/26 06:37:11;;;;;;;10.50;4.93;;;2.90;99.90;;;;;;5059856;28;20184;-77
2021/11/26 06:39:37;;;;;;;12.17;5.60;;;2.80;99.90;;;;;;5059566;28;20244;-81
2021/11/26 06:42:03;;;;;;;11.77;5.97;;;2.90;99.90;;;;;;5076939;28;20299;-80
2021/11/26 06:44:29;;;;;;;14.57;5.63;;;3.00;99.90;;;;;;5058582;28;20229;-79
2021/11/26 06:46:54;;;;;;;11.47;6.27;;;3.00;99.90;;;;;;5059409;28;20197;-79
2021/11/26 06:49:20;;;;;;;10.63;4.83;;;3.10;99.90;;;;;;5057291;28;20170;-79
2021/11/26 06:51:46;;;;;;;12.23;5.93;;;3.10;99.90;;;;;;5078421;28;20326;-80
2021/11/26 06:54:12;;;;;;;12.33;4.83;;;3.10;99.90;;;;;;5058803;28;20196;-80
2021/11/26 06:56:37;;;;;;;8.90;4.50;;;3.30;99.90;;;;;;5077962;28;20227;-81
2021/11/26 06:59:04;;;;;;;9.13;4.73;;;3.30;99.90;;;;;;5077440;28;20236;-80
2021/11/26 07:01:30;;;;;;;10.13;4.30;;;3.40;99.90;;;;;;5078063;28;20177;-81
2021/11/26 07:03:55;;;;;;;9.73;4.53;;;3.40;99.90;;;;;;5051567;28;20193;-81
2021/11/26 07:06:22;;;;;;;9.53;4.40;;;3.40;99.90;;;;;;5061757;28;20197;-78
2021/11/26 07:08:47;;;;;;;9.97;4.37;;;3.40;99.90;;;;;;5079926;28;20184;-78
2021/11/26 07:11:13;;;;;;;11.23;5.40;;;3.40;99.90;;;;;;5061900;28;20182;-80
2021/11/26 07:13:40;;;;;;;8.70;4.30;;;3.40;99.90;;;;;;5079592;28;20178;-79
2021/11/26 07:16:06;;;;;;;11.80;5.03;;;3.40;99.90;;;;;;5066374;28;20204;-79
2021/11/26 07:18:31;;;;;;;10.77;5.87;;;3.50;99.90;;;;;;5065601;28;20204;-78
2021/11/26 07:20:57;;;;;;;9.77;5.17;;;3.40;99.90;;;;;;5065074;28;20695;-77
2021/11/26 07:23:23;;;;;;;13.63;5.23;;;3.40;99.90;;;;;;5066763;28;20196;-78
2021/11/26 07:25:48;;;;;;;8.30;4.33;;;3.60;99.90;;;;;;5084756;28;20225;-78
2021/11/26 07:28:14;;;;;;;7.93;4.53;;;3.60;99.90;;;;;;5066430;28;20203;-77
2021/11/26 07:30:40;;;;;;;8.20;4.70;;;3.70;99.90;;;;;;5066463;28;20181;-76
2021/11/26 07:33:07;;;;;;;7.63;3.67;;;3.70;99.90;;;;;;5083922;28;20182;-79
2021/11/26 07:35:33;;;;;;;9.63;3.90;;;3.70;99.90;;;;;;5065829;28;20205;-76
2021/11/26 07:37:59;;;;;;;12.27;4.23;;;3.70;99.90;;;;;;5067211;28;20272;-80
2021/11/26 07:40:24;;;;;;;6.67;3.90;;;3.80;99.90;;;;;;5063515;28;20284;-76
2021/11/26 07:42:50;;;;;;;6.70;3.40;;;3.90;99.90;;;;;;5067384;28;20189;-77
2021/11/26 07:45:16;;;;;;;7.00;3.90;;;3.80;99.90;;;;;;5064618;28;20196;-78
2021/11/26 07:47:42;;;;;;;9.40;3.87;;;3.70;99.90;;;;;;5065794;28;20187;-77
2021/11/26 07:50:10;;;;;;;5.20;3.37;;;3.80;99.90;;;;;;5083384;28;20177;-76
2021/11/26 07:52:37;;;;;;;5.27;3.20;;;3.90;99.90;;;;;;5062120;28;20178;-81
2021/11/26 07:57:40;;;;;;;6.27;3.60;;;3.90;99.90;;;;;;5606361;22;20740;-77
2021/11/26 08:00:07;;;;;;;8.30;4.17;;;3.90;99.90;;;;;;5068406;28;20190;-78
2021/11/26 08:02:33;;;;;;;9.83;3.60;;;3.90;99.90;;;;;;5051797;28;20247;-78
2021/11/26 08:04:59;;;;;;;5.97;3.97;;;4.00;99.90;;;;;;5047145;28;20217;-78
2021/11/26 08:07:25;;;;;;;7.63;4.10;;;4.00;99.90;;;;;;5049183;28;20210;-78
2021/11/26 08:09:51;;;;;;;9.50;4.20;;;4.10;99.90;;;;;;5048619;28;20181;-78
2021/11/26 08:12:17;;;;;;;6.70;4.17;;;4.20;99.90;;;;;;5050678;28;20178;-79
2021/11/26 08:14:42;;;;;;;9.73;4.07;;;4.20;99.90;;;;;;5067917;28;20185;-78
2021/11/26 08:17:08;;;;;;;9.17;4.47;;;4.30;99.90;;;;;;5068039;28;20212;-78
2021/11/26 08:19:34;;;;;;;7.63;3.87;;;4.20;99.90;;;;;;5068446;28;20976;-79
2021/11/26 08:21:59;;;;;;;6.60;3.60;;;4.30;99.90;;;;;;5049244;28;20227;-80
2021/11/26 08:24:25;;;;;;;8.73;3.83;;;4.40;99.90;;;;;;5050515;28;20642;-78
2021/11/26 08:26:52;;;;;;;8.07;4.00;;;4.50;99.90;;;;;;5067726;28;20209;-77
2021/11/26 08:29:18;;;;;;;7.83;4.33;;;4.50;99.90;;;;;;5067108;28;20185;-77
2021/11/26 08:31:43;;;;;;;8.97;4.50;;;4.50;99.90;;;;;;5048281;28;20189;-77
2021/11/26 08:34:09;;;;;;;11.70;5.77;;;4.50;99.90;;;;;;5067081;28;20261;-80
2021/11/26 08:36:35;;;;;;;9.20;5.00;;;4.50;99.90;;;;;;5047526;28;20271;-79
2021/11/26 08:39:01;;;;;;;8.27;4.43;;;4.60;99.90;;;;;;5065985;28;20226;-78
2021/11/26 08:41:27;;;;;;;71.00;39.33;;;4.60;99.90;;;;;;5044593;28;20618;-78
2021/11/26 08:43:53;;;;;;;15.30;8.00;;;4.60;99.90;;;;;;5063423;28;20189;-77
2021/11/26 08:46:19;;;;;;;9.00;5.03;;;4.60;99.90;;;;;;5045150;28;21118;-78
2021/11/26 08:48:45;;;;;;;6.53;4.37;;;4.70;99.90;;;;;;5046426;28;20359;-77
2021/11/26 08:51:11;;;;;;;9.70;4.27;;;4.70;99.90;;;;;;5064320;28;20173;-79
2021/11/26 08:53:43;;;;;;;9.27;4.40;;;4.60;99.90;;;;;;5045876;28;20663;-77
2021/11/26 08:56:09;;;;;;;10.93;4.57;;;4.70;99.90;;;;;;5064246;28;20212;-77
2021/11/26 08:58:36;;;;;;;8.90;4.43;;;4.70;99.90;;;;;;5045826;28;20308;-77
2021/11/26 09:01:03;;;;;;;6.23;3.90;;;4.80;99.90;;;;;;5064824;28;20616;-80
2021/11/26 09:03:29;;;;;;;7.50;4.30;;;4.70;99.90;;;;;;5062137;28;20550;-77
2021/11/26 09:05:54;;;;;;;8.43;3.70;;;4.80;99.90;;;;;;5062648;28;20205;-78
2021/11/26 09:08:20;;;;;;;9.80;4.70;;;4.80;99.90;;;;;;5062332;28;20208;-78
2021/11/26 09:10:47;;;;;;;10.27;4.67;;;4.80;99.90;;;;;;5065141;28;20224;-79
2021/11/26 09:13:15;;;;;;;7.77;4.57;;;4.90;99.90;;;;;;5062434;28;20182;-78
2021/11/26 09:15:41;;;;;;;7.03;4.13;;;4.90;99.90;;;;;;5064420;28;20225;-77
2021/11/26 09:18:08;;;;;;;7.93;4.07;;;4.90;99.90;;;;;;5043770;28;20736;-79
2021/11/26 09:20:35;;;;;;;8.83;4.20;;;5.00;99.90;;;;;;5063007;28;20197;-79
2021/11/26 09:23:01;;;;;;;7.53;4.23;;;5.10;99.90;;;;;;5043594;28;20343;-81
2021/11/26 09:25:27;;;;;;;6.97;4.17;;;5.00;99.90;;;;;;5045497;28;20572;-76
2021/11/26 09:27:53;;;;;;;7.33;3.83;;;5.20;99.90;;;;;;5037557;28;20201;-79
2021/11/26 09:30:20;;;;;;;7.83;4.07;;;5.20;99.90;;;;;;5044410;28;20686;-78
2021/11/26 09:32:46;;;;;;;6.20;3.97;;;5.20;99.90;;;;;;5045056;28;20201;-77
2021/11/26 09:35:12;;;;;;;6.03;3.97;;;5.30;99.90;;;;;;5064408;28;20185;-78
2021/11/26 09:37:38;;;;;;;9.53;4.10;;;5.30;99.90;;;;;;5061614;28;20205;-78
2021/11/26 09:40:06;;;;;;;7.73;3.80;;;5.40;99.90;;;;;;5041439;28;20185;-81
2021/11/26 09:42:32;;;;;;;5.90;3.20;;;5.50;99.90;;;;;;5063082;28;20662;-76
2021/11/26 09:45:00;;;;;;;7.50;3.67;;;5.50;99.90;;;;;;5063432;28;20185;-76
2021/11/26 09:47:27;;;;;;;7.43;3.77;;;5.50;99.90;;;;;;5063964;28;20213;-80
2021/11/26 09:49:52;;;;;;;7.33;4.30;;;5.50;99.90;;;;;;5044397;28;20193;-80
2021/11/26 09:52:18;;;;;;;6.07;3.73;;;5.50;99.90;;;;;;5043738;28;20185;-78
2021/11/26 09:54:45;;;;;;;6.87;4.13;;;5.70;99.90;;;;;;5047577;28;20185;-81
2021/11/26 09:57:11;;;;;;;7.37;4.97;;;5.70;99.90;;;;;;5046915;28;20216;-80
2021/11/26 09:59:42;;;;;;;7.20;3.90;;;5.70;99.90;;;;;;5063095;28;20201;-79
2021/11/26 10:02:10;;;;;;;8.30;3.90;;;5.80;99.90;;;;;;5044474;28;20196;-80
2021/11/26 10:04:36;;;;;;;7.10;3.70;;;5.80;99.90;;;;;;5063249;28;20246;-79
2021/11/26 10:07:04;;;;;;;7.80;3.63;;;6.00;99.90;;;;;;5044548;28;20654;-81
2021/11/26 10:09:35;;;;;;;7.33;4.57;;;6.10;99.90;;;;;;5065195;28;20813;-78
2021/11/26 10:12:14;;;;;;;7.30;4.43;;;6.10;99.90;;;;;;5065681;28;20174;-78
2021/11/26 10:14:43;;;;;;;8.00;4.07;;;6.10;99.90;;;;;;5046795;28;20189;-79
2021/11/26 10:17:15;;;;;;;8.17;5.13;;;6.00;99.90;;;;;;5065105;28;20586;-77
2021/11/26 10:19:54;;;;;;;6.33;4.23;;;6.20;99.90;;;;;;5049637;28;20201;-79
2021/11/26 10:22:31;;;;;;;7.83;4.97;;;6.10;99.90;;;;;;5066579;28;20617;-76
2021/11/26 10:25:19;;;;;;;8.73;4.30;;;6.00;99.90;;;;;;5050638;28;20556;-82
2021/11/26 10:28:00;;;;;;;7.97;4.40;;;6.00;99.90;;;;;;5067867;28;20205;-81
2021/11/26 10:30:31;;;;;;;8.13;4.07;;;6.00;99.90;;;;;;5068982;28;20185;-81
2021/11/26 10:33:03;;;;;;;11.73;5.57;;;5.90;99.90;;;;;;5068733;28;20177;-81
2021/11/26 10:35:32;;;;;;;15.43;6.50;;;5.80;99.90;;;;;;5069119;28;20235;-78
2021/11/26 10:38:06;;;;;;;20.07;8.57;;;5.70;99.90;;;;;;5068698;28;21215;-79
2021/11/26 10:40:34;;;;;;;8.67;4.40;;;5.70;99.90;;;;;;5050238;28;20272;-78
2021/11/26 10:43:03;;;;;;;8.83;4.73;;;5.80;99.90;;;;;;5050882;28;20224;-79
2021/11/26 10:48:32;;;;;;;6.67;3.80;;;5.70;99.90;;;;;;5065350;28;20583;-80
2021/11/26 10:59:04;;;;;;;6.43;4.27;;;5.70;99.90;;;;;;5069634;28;20880;-81
2021/11/26 11:01:42;;;;;;;9.13;4.43;;;5.70;99.90;;;;;;5069787;28;20185;-80
2021/11/26 11:04:16;;;;;;;9.63;4.77;;;5.70;99.90;;;;;;5048508;28;20173;-80
2021/11/26 11:06:43;;;;;;;24.63;11.17;;;5.60;99.90;;;;;;5069527;28;20752;-80
2021/11/26 11:09:11;;;;;;;19.40;9.17;;;5.70;99.90;;;;;;5068654;28;20174;-78
2021/11/26 11:11:48;;;;;;;13.00;6.73;;;5.60;99.90;;;;;;5069392;28;20184;-78
2021/11/26 11:14:16;;;;;;;8.43;5.47;;;5.60;99.90;;;;;;5052959;28;20181;-78
2021/11/26 11:16:52;;;;;;;7.50;4.60;;;5.50;99.90;;;;;;5052356;28;21077;-80
2021/11/26 11:19:18;;;;;;;7.57;4.63;;;5.40;99.90;;;;;;5053611;28;20185;-79
2021/11/26 11:21:45;;;;;;;7.57;4.53;;;5.30;99.90;;;;;;5069979;28;20261;-77
2021/11/26 11:24:12;;;;;;;7.37;4.37;;;5.30;99.90;;;;;;5069638;28;20284;-80
2021/11/26 11:26:44;;;;;;;8.93;4.80;;;5.30;99.90;;;;;;5070942;28;20196;-81
2021/11/26 11:29:11;;;;;;;7.90;4.60;;;5.30;99.90;;;;;;5064626;28;20223;-80
2021/11/26 11:31:41;;;;;;;7.67;4.20;;;5.20;99.90;;;;;;5052359;28;20269;-79
2021/11/26 11:34:07;;;;;;;9.07;5.13;;;5.20;99.90;;;;;;5068479;28;20174;-79
2021/11/26 11:36:36;;;;;;;6.07;3.60;;;5.10;99.90;;;;;;5069865;28;20242;-80
2021/11/26 11:39:04;;;;;;;7.00;3.83;;;5.20;99.90;;;;;;5059661;28;20736;-77
2021/11/26 11:41:30;;;;;;;8.63;3.93;;;5.10;99.90;;;;;;5069190;28;20196;-81
2021/11/26 11:43:56;;;;;;;5.40;3.77;;;5.00;99.90;;;;;;5048352;28;20182;-79
2021/11/26 11:46:21;;;;;;;7.67;4.37;;;5.00;99.90;;;;;;5050117;28;20212;-78
2021/11/26 11:48:50;;;;;;;8.00;4.33;;;5.00;99.90;;;;;;5053568;28;20552;-76
2021/11/26 11:51:31;;;;;;;8.63;4.37;;;5.00;99.90;;;;;;5051504;28;20295;-78
2021/11/26 11:54:09;;;;;;;9.43;3.73;;;5.00;99.90;;;;;;5051734;28;20174;-82
2021/11/26 11:56:53;;;;;;;5.53;3.70;;;5.00;99.90;;;;;;5050238;28;20181;-78
2021/11/26 11:59:32;;;;;;;6.30;3.33;;;5.00;99.90;;;;;;5051595;28;20201;-78
2021/11/26 12:01:59;;;;;;;7.07;4.30;;;5.00;99.90;;;;;;5069049;28;20185;-81
2021/11/26 12:04:26;;;;;;;8.10;4.00;;;4.90;99.90;;;;;;5050833;28;20192;-80
2021/11/26 12:06:53;;;;;;;6.00;4.17;;;4.90;99.90;;;;;;5068988;28;20205;-81
2021/11/26 12:09:26;;;;;;;7.07;4.60;;;4.90;99.90;;;;;;5068896;28;20212;-78
2021/11/26 12:12:04;;;;;;;7.40;4.70;;;4.90;99.90;;;;;;5070699;28;20174;-80
2021/11/26 12:14:30;;;;;;;7.10;4.90;;;4.90;99.90;;;;;;5070944;28;20772;-77
2021/11/26 12:17:12;;;;;;;6.37;4.20;;;4.90;99.90;;;;;;5070576;28;20315;-79
2021/11/26 12:19:37;;;;;;;6.07;4.07;;;4.90;99.90;;;;;;5068953;28;20178;-81
2021/11/26 12:22:04;;;;;;;5.53;3.83;;;5.00;99.90;;;;;;5067707;28;20199;-78
2021/11/26 12:24:38;;;;;;;7.67;4.50;;;5.00;99.90;;;;;;5059385;28;20300;-78
2021/11/26 12:27:06;;;;;;;7.17;3.83;;;5.00;99.90;;;;;;5043944;28;20292;-79
2021/11/26 12:29:37;;;;;;;6.77;4.23;;;5.00;99.90;;;;;;5053813;28;20178;-81
2021/11/26 12:32:09;;;;;;;7.03;4.00;;;5.00;99.90;;;;;;5069058;28;20162;-79
2021/11/26 12:34:40;;;;;;;5.87;3.57;;;5.00;99.90;;;;;;5067683;28;20203;-80
2021/11/26 12:37:19;;;;;;;5.57;4.13;;;4.80;99.90;;;;;;5048001;28;20202;-79
2021/11/26 12:39:45;;;;;;;4.60;3.17;;;4.90;99.90;;;;;;5069225;28;20181;-79
2021/11/26 12:42:12;;;;;;;7.17;3.40;;;4.80;99.90;;;;;;5072167;28;20549;-80
2021/11/26 12:44:37;;;;;;;7.33;4.77;;;4.80;99.90;;;;;;5069711;28;20322;-80
2021/11/26 12:47:10;;;;;;;5.67;3.27;;;4.80;99.90;;;;;;5059516;28;20681;-80
2021/11/26 12:52:24;;;;;;;3.13;2.47;;;4.80;99.90;;;;;;5070023;28;20173;-79
2021/11/26 12:54:53;;;;;;;3.07;2.27;;;4.80;99.90;;;;;;5058503;28;20552;-81
2021/11/26 12:57:31;;;;;;;3.53;2.37;;;4.80;99.90;;;;;;5049404;28;21152;-79
2021/11/26 12:59:59;;;;;;;3.87;2.00;;;4.80;99.90;;;;;;5068123;28;20177;-79
2021/11/26 13:02:31;;;;;;;3.27;2.50;;;4.80;99.90;;;;;;5051762;28;20181;-78
2021/11/26 13:04:59;;;;;;;3.60;2.70;;;4.80;99.90;;;;;;5067126;28;20181;-81
2021/11/26 13:07:27;;;;;;;4.33;2.73;;;4.80;99.90;;;;;;5068250;28;20530;-79